»·PEaware :: QXE515 KRDM-KPDX

QXE515 :: KRDM-KPDX

FLIGHT INFORMATION

Flight Status: Arrived
Operator:
Horizon Air
More flights by this operator :: More flights under this callsign
Pilot: Doug L. (8712)
Aircraft: DEHAVILLAND DASH 8 400
(DH8D)
More flights by this aircraft type
Origin: KRDM Roberts
United States
Destination: KPDX Portland Intl
United States
More flights between these airports :: More routes between these airports
Route: RDM3 DSD V165 MAVER V448 BTG
File this flight plan on PilotEdge
Remarks:
Altitude:
(Current/Filed)
14,000ft
Speed:
(Current/Filed)
330kts
Departed: 08-Jan-19 09:29 AM
Arrived: 08-Jan-19 10:04 AM
Distance/Time
Traveled:
101nm/0:35
Distance/Time
To Go:
Arrived

Flight Plot

Page will automatically refresh every two minutes.

Flight plan parsing failed; only flown route is shown


Map Options




Map Legend


Flown Route
Filed Route
Departure Airport
Arrival Airport
Navaid (VOR, NDB)
Fix

Horizontal Profiles

Position Reports

Time Latitude Longitude Heading Altitude Ground
Speed
08-Jan-19 09:16 44.252610 -121.160283 129 3084ft 6kts
08-Jan-19 09:17 44.252958 -121.156445 56 3084ft 15kts
08-Jan-19 09:18 44.256081 -121.148820 59 3084ft 21kts
08-Jan-19 09:19 44.258835 -121.142117 60 3084ft 18kts
08-Jan-19 09:20 44.259562 -121.140327 60 3084ft 0kts
08-Jan-19 09:21 44.259562 -121.140327 60 3084ft 0kts
08-Jan-19 09:22 44.259562 -121.140327 60 3084ft 0kts
08-Jan-19 09:23 44.259562 -121.140327 60 3084ft 0kts
08-Jan-19 09:24 44.259562 -121.140327 60 3084ft 0kts
08-Jan-19 09:25 44.259562 -121.140327 60 3084ft 0kts
08-Jan-19 09:26 44.259562 -121.140327 60 3084ft 0kts
08-Jan-19 09:27 44.259631 -121.140158 60 3084ft 6kts
08-Jan-19 09:28 44.254233 -121.150182 241 3086ft 126kts
08-Jan-19 09:29 44.229308 -121.199366 243 5081ft 170kts
08-Jan-19 09:30 44.206599 -121.259767 244 7508ft 192kts
08-Jan-19 09:31 44.184717 -121.333435 247 10078ft 207kts
08-Jan-19 09:32 44.176282 -121.403375 270 13425ft 177kts
08-Jan-19 09:33 44.219347 -121.466394 307 14010ft 275kts
08-Jan-19 09:34 44.279697 -121.543539 309 13991ft 324kts
08-Jan-19 09:35 44.348667 -121.630387 310 13990ft 345kts
08-Jan-19 09:36 44.420359 -121.720359 310 13987ft 353kts
08-Jan-19 09:37 44.493640 -121.812528 310 13980ft 352kts
08-Jan-19 09:38 44.565525 -121.903054 310 13959ft 346kts
08-Jan-19 09:39 44.635875 -121.992202 310 13946ft 344kts
08-Jan-19 09:40 44.705488 -122.080493 309 13933ft 343kts
08-Jan-19 09:41 44.775340 -122.169410 308 13926ft 340kts
08-Jan-19 09:42 44.844734 -122.258149 309 13900ft 338kts
08-Jan-19 09:43 44.912275 -122.344804 310 13998ft 335kts
08-Jan-19 09:44 44.979917 -122.432111 309 13975ft 335kts
08-Jan-19 09:45 45.046634 -122.518652 309 13245ft 353kts
08-Jan-19 09:46 45.119490 -122.599435 335 11661ft 330kts
08-Jan-19 09:47 45.206931 -122.606491 0 10120ft 321kts
08-Jan-19 09:48 45.285700 -122.603681 1 9967ft 273kts
08-Jan-19 09:49 45.364078 -122.601623 1 8544ft 312kts
08-Jan-19 09:50 45.443198 -122.600017 5 7961ft 257kts
08-Jan-19 09:51 45.491191 -122.658296 294 7285ft 265kts
08-Jan-19 09:52 45.524512 -122.743122 296 6085ft 280kts
08-Jan-19 09:53 45.556705 -122.826862 296 5988ft 252kts
08-Jan-19 09:54 45.593299 -122.906336 314 5701ft 253kts
08-Jan-19 09:55 45.648149 -122.975464 335 4083ft 267kts
08-Jan-19 09:56 45.702056 -122.949897 80 3994ft 188kts
08-Jan-19 09:57 45.693671 -122.890278 113 3980ft 182kts
08-Jan-19 09:58 45.671904 -122.821352 118 3099ft 197kts
08-Jan-19 09:59 45.647443 -122.756147 118 2137ft 170kts
08-Jan-19 10:00 45.626755 -122.702776 118 1320ft 156kts
08-Jan-19 10:01 45.608022 -122.654611 118 576ft 129kts
08-Jan-19 10:02 45.591840 -122.613037 119 38ft 86kts
08-Jan-19 10:03 45.589523 -122.604498 40 37ft 0kts
08-Jan-19 10:04 45.589287 -122.601012 119 37ft 21kts
08-Jan-19 10:05 45.587745 -122.597075 118 37ft 14kts
08-Jan-19 10:06 45.585985 -122.593203 129 37ft 9kts
08-Jan-19 10:07 45.585896 -122.591945 13 37ft 0kts
08-Jan-19 10:08 45.585914 -122.591939 13 37ft 0kts
08-Jan-19 10:09 45.585914 -122.591939 13 37ft 0kts
08-Jan-19 10:10 45.585914 -122.591939 13 37ft 0kts

Navigation Log

Ident Type
Flight plan parsing failed, navigation log unavailable